Nome, North Dakota
Current Conditions -  °F | °C
As of 12:15 PM on Friday 28 Nov 2014 (Local Time) from KBAC Reporting Station
Light Snow Light Snow  
Wind Chill: -6°   Ceiling: 500
Heat Index: 10°   Visibility: 9mi
Dew Point:   Wind: 15mph
Humidity: 92%   Direction: 110°ESE
Pressure: 29.79"   Gusts: NA
Location:  46.68°N, 97.81°W
Report Text: KBAC 281815Z AUTO 11013KT 9SM -SN BKN005 OVC009 M12/M13 A2979 RMK AO2
Loading
Personal Weather Stations






























Interactive Weather Map New forecast layout! Learn more

10-Day Weather Forecast

Advertisements
Track Severe Weather on mobile